createdAt,value
2023-04-18T00:04:05.469Z,86.47
2023-04-18T00:09:08.500Z,86.94
2023-04-18T00:14:12.270Z,86.95
2023-04-18T00:19:15.672Z,87.20
2023-04-18T00:24:18.487Z,87.32
2023-04-18T00:29:21.271Z,87.35
2023-04-18T00:34:24.122Z,87.88
2023-04-18T00:39:26.988Z,87.35
2023-04-18T00:44:31.488Z,87.80
2023-04-18T00:49:34.338Z,87.25
2023-04-18T00:54:37.075Z,87.21
2023-04-18T00:59:39.883Z,87.25
2023-04-18T01:04:43.757Z,87.01
2023-04-18T01:09:46.578Z,87.50
2023-04-18T01:14:49.416Z,87.47
2023-04-18T01:19:52.227Z,86.97
2023-04-18T01:24:55.873Z,87.68
2023-04-18T01:29:58.738Z,88.09
2023-04-18T01:35:01.889Z,87.81
2023-04-18T01:40:05.504Z,87.82
2023-04-18T01:45:08.548Z,88.05
2023-04-18T01:50:11.597Z,87.22
2023-04-18T01:55:14.446Z,87.59
2023-04-18T02:00:17.782Z,87.43
2023-04-18T02:05:20.775Z,87.27
2023-04-18T02:10:23.995Z,87.60
2023-04-18T02:15:26.867Z,87.43
2023-04-18T02:20:33.682Z,87.80
2023-04-18T02:25:36.573Z,87.68
2023-04-18T02:30:39.442Z,87.49
2023-04-18T02:35:42.347Z,87.59
2023-04-18T02:40:45.745Z,87.87
2023-04-18T02:45:48.671Z,87.93
2023-04-18T02:50:51.496Z,87.83
2023-04-18T02:55:54.327Z,88.13
2023-04-18T03:00:58.065Z,89.15
2023-04-18T03:06:01.013Z,89.55
2023-04-18T03:11:04.127Z,89.34
2023-04-18T03:16:07.088Z,89.42
2023-04-18T03:21:09.952Z,89.49
2023-04-18T03:26:13.950Z,89.50
2023-04-18T03:31:16.789Z,89.35
2023-04-18T03:36:21.220Z,89.81
2023-04-18T03:41:24.170Z,89.71
2023-04-18T03:46:26.972Z,89.48
2023-04-18T03:51:42.790Z,89.64
2023-04-18T03:56:45.635Z,89.44
2023-04-18T04:01:48.603Z,89.03
2023-04-18T04:06:51.364Z,88.93
2023-04-18T04:11:54.159Z,88.65
2023-04-18T04:16:56.924Z,88.93
2023-04-18T04:21:59.724Z,89.17
2023-04-18T04:27:03.696Z,88.77
2023-04-18T04:32:07.102Z,88.84
2023-04-18T04:37:09.981Z,88.51
2023-04-18T04:42:13.436Z,88.04
2023-04-18T04:47:16.395Z,88.12
2023-04-18T04:52:19.405Z,88.11
2023-04-18T04:57:22.247Z,88.04
2023-04-18T05:02:25.260Z,87.58
2023-04-18T05:07:28.376Z,87.23
2023-04-18T05:12:31.476Z,86.96
2023-04-18T05:17:34.238Z,86.83
2023-04-18T05:22:37.154Z,86.46
2023-04-18T05:27:40.087Z,86.14
2023-04-18T05:32:43.264Z,85.86
2023-04-18T05:37:46.141Z,85.39
2023-04-18T05:42:48.881Z,85.07
2023-04-18T05:47:53.853Z,85.17
2023-04-18T05:52:59.310Z,85.01
2023-04-18T05:58:02.253Z,84.93
2023-04-18T06:03:05.837Z,84.35
2023-04-18T06:08:10.720Z,84.22
2023-04-18T06:13:13.603Z,83.96
2023-04-18T06:18:16.603Z,83.63
2023-04-18T06:23:19.515Z,83.63
2023-04-18T06:28:22.359Z,83.00
2023-04-18T06:33:25.281Z,82.52
2023-04-18T06:38:28.144Z,82.56
2023-04-18T06:43:31.344Z,82.49
2023-04-18T06:48:34.334Z,81.96
2023-04-18T06:53:37.172Z,81.64
2023-04-18T06:58:40.203Z,81.81
2023-04-18T07:03:43.142Z,81.97
2023-04-18T07:08:46.294Z,81.39
2023-04-18T07:13:50.309Z,81.48
2023-04-18T07:18:53.200Z,81.50
2023-04-18T07:23:55.994Z,80.91
2023-04-18T07:28:58.793Z,81.10
2023-04-18T07:34:01.541Z,80.58
2023-04-18T07:39:04.310Z,79.79
2023-04-18T07:44:07.121Z,79.53
2023-04-18T07:49:09.925Z,78.92
2023-04-18T07:54:12.979Z,77.93
2023-04-18T07:59:15.951Z,76.91
2023-04-18T08:04:19.189Z,75.28
2023-04-18T08:09:22.084Z,74.30
2023-04-18T08:14:25.100Z,73.99
2023-04-18T08:19:28.142Z,72.81
2023-04-18T08:24:30.926Z,73.09
2023-04-18T08:29:33.680Z,72.11
2023-04-18T08:34:36.447Z,70.87
2023-04-18T08:39:39.331Z,70.49
2023-04-18T08:44:45.203Z,68.61
2023-04-18T08:49:49.340Z,67.87
2023-04-18T08:54:52.685Z,68.72
2023-04-18T08:59:56.574Z,67.48
2023-04-18T09:04:59.823Z,65.37
2023-04-18T09:10:02.670Z,65.97
2023-04-18T09:15:16.427Z,64.96
2023-04-18T09:20:41.324Z,63.68
2023-04-18T09:25:49.270Z,63.98
2023-04-18T09:30:52.765Z,63.36
2023-04-18T09:35:57.252Z,61.74
2023-04-18T09:41:20.847Z,60.79
2023-04-18T09:46:24.449Z,61.03
2023-04-18T09:51:27.416Z,59.23
2023-04-18T09:56:32.001Z,56.35
2023-04-18T10:01:35.048Z,55.55
2023-04-18T10:06:42.180Z,52.34
2023-04-18T10:11:44.957Z,50.22
2023-04-18T10:16:49.950Z,50.74
2023-04-18T10:22:01.052Z,49.12
2023-04-18T10:27:04.194Z,48.91
2023-04-18T10:32:07.739Z,47.68
2023-04-18T10:37:12.972Z,47.69
2023-04-18T10:42:15.969Z,48.12
2023-04-18T10:47:21.024Z,45.54
2023-04-18T10:52:24.042Z,42.85
2023-04-18T10:57:38.974Z,39.14
2023-04-18T11:02:52.269Z,40.00
2023-04-18T11:07:55.444Z,41.03
2023-04-18T11:13:04.404Z,39.38
2023-04-18T11:18:09.197Z,37.97
2023-04-18T11:23:21.494Z,37.95
2023-04-18T11:28:27.181Z,37.34
2023-04-18T11:33:30.092Z,36.17
2023-04-18T11:38:34.708Z,36.53
2023-04-18T11:43:37.647Z,38.58
2023-04-18T11:48:42.404Z,40.59
2023-04-18T11:53:45.537Z,42.37
2023-04-18T11:58:48.430Z,43.87
2023-04-18T12:04:08.049Z,44.17
2023-04-18T12:09:15.348Z,45.00
2023-04-18T12:14:21.947Z,45.28
2023-04-18T12:19:28.279Z,45.90
2023-04-18T12:24:32.379Z,46.10
2023-04-18T12:29:35.671Z,46.68
2023-04-18T12:34:38.488Z,45.70
2023-04-18T12:39:42.605Z,44.72
2023-04-18T12:44:47.898Z,44.69
2023-04-18T12:49:50.782Z,44.85
2023-04-18T12:54:56.366Z,45.16
2023-04-18T13:00:00.049Z,46.21
2023-04-18T13:05:05.508Z,46.00
2023-04-18T13:10:13.816Z,45.98
2023-04-18T13:15:16.818Z,46.80
2023-04-18T13:20:19.618Z,46.70
2023-04-18T13:25:22.870Z,46.71
2023-04-18T13:30:25.814Z,46.62
2023-04-18T13:35:28.592Z,46.35
2023-04-18T13:40:33.476Z,45.50
2023-04-18T13:45:36.398Z,44.79
2023-04-18T13:50:39.890Z,45.64
2023-04-18T13:55:42.856Z,44.95
2023-04-18T14:00:45.935Z,45.12
2023-04-18T14:05:48.914Z,45.25
2023-04-18T14:10:51.831Z,46.07
2023-04-18T14:15:54.917Z,46.49
2023-04-18T14:20:58.222Z,46.85
2023-04-18T14:26:01.071Z,47.23
2023-04-18T14:31:06.499Z,47.53
2023-04-18T14:36:09.864Z,47.73
2023-04-18T14:41:12.697Z,47.02
2023-04-18T14:46:18.573Z,47.56
2023-04-18T14:51:21.403Z,47.69
2023-04-18T14:56:24.369Z,47.27
2023-04-18T15:01:27.185Z,47.13
2023-04-18T15:06:30.132Z,46.97
2023-04-18T15:11:33.005Z,46.38
2023-04-18T15:16:38.125Z,46.82
2023-04-18T15:21:41.112Z,46.61
2023-04-18T15:26:44.006Z,46.91
2023-04-18T15:31:47.299Z,47.24
2023-04-18T15:36:50.059Z,47.44
2023-04-18T15:41:56.646Z,47.83
2023-04-18T15:47:01.214Z,47.98
2023-04-18T15:52:06.264Z,47.63
2023-04-18T15:57:10.357Z,47.53
2023-04-18T16:02:13.169Z,47.72
2023-04-18T16:07:16.590Z,47.47
2023-04-18T16:12:19.316Z,46.74
2023-04-18T16:17:22.060Z,47.41
2023-04-18T16:22:26.007Z,47.37
2023-04-18T16:27:28.976Z,47.35
2023-04-18T16:32:31.910Z,47.60
2023-04-18T16:37:34.837Z,47.63
2023-04-18T16:42:37.719Z,47.19
2023-04-18T16:47:40.745Z,47.92
2023-04-18T16:52:43.680Z,48.36
2023-04-18T16:57:46.468Z,48.83
2023-04-18T17:02:49.453Z,48.99
2023-04-18T17:07:52.679Z,49.19
2023-04-18T17:12:55.555Z,49.92
2023-04-18T17:18:00.338Z,49.99
2023-04-18T17:23:03.329Z,50.80
2023-04-18T17:28:06.186Z,51.06
2023-04-18T17:33:10.209Z,51.37
2023-04-18T17:38:13.402Z,51.97
2023-04-18T17:43:16.446Z,51.90
2023-04-18T17:48:19.299Z,52.39
2023-04-18T17:53:22.289Z,52.59
2023-04-18T17:58:26.170Z,53.09
2023-04-18T18:03:29.096Z,53.55
2023-04-18T18:08:32.358Z,53.69
2023-04-18T18:13:39.051Z,53.94
2023-04-18T18:18:42.018Z,53.89
2023-04-18T18:23:44.926Z,54.21
2023-04-18T18:28:47.907Z,54.61
2023-04-18T18:33:53.798Z,55.14
2023-04-18T18:38:57.912Z,55.09
2023-04-18T18:44:00.843Z,55.13
2023-04-18T18:49:04.105Z,55.27
2023-04-18T18:54:07.289Z,55.26
2023-04-18T18:59:10.157Z,55.36
2023-04-18T19:04:13.211Z,55.16
2023-04-18T19:09:16.531Z,55.93
2023-04-18T19:14:19.419Z,56.20
2023-04-18T19:19:22.216Z,56.11
2023-04-18T19:24:25.192Z,55.88
2023-04-18T19:29:29.200Z,55.67
2023-04-18T19:34:33.589Z,55.68
2023-04-18T19:39:36.635Z,55.35
2023-04-18T19:44:39.545Z,54.96
2023-04-18T19:49:42.325Z,54.77
2023-04-18T19:54:45.124Z,55.01
2023-04-18T19:59:47.880Z,54.87
2023-04-18T20:04:51.862Z,54.86
2023-04-18T20:09:54.829Z,54.89
2023-04-18T20:14:58.856Z,54.67
2023-04-18T20:20:01.767Z,54.97
2023-04-18T20:25:05.853Z,54.87
2023-04-18T20:30:08.927Z,54.85
2023-04-18T20:35:11.950Z,55.14
2023-04-18T20:40:14.861Z,55.65
2023-04-18T20:45:18.131Z,55.79
2023-04-18T20:50:21.010Z,56.31
2023-04-18T20:55:24.079Z,56.53
2023-04-18T21:00:26.820Z,56.72
2023-04-18T21:05:29.690Z,57.01
2023-04-18T21:10:32.548Z,57.34
2023-04-18T21:15:35.868Z,57.96
2023-04-18T21:20:38.712Z,57.67
2023-04-18T21:25:41.586Z,57.77
2023-04-18T21:30:44.306Z,57.77
2023-04-18T21:35:47.099Z,57.97
2023-04-18T21:40:49.829Z,58.08
2023-04-18T21:45:52.743Z,58.35
2023-04-18T21:50:55.888Z,58.34
2023-04-18T21:55:58.618Z,58.63
2023-04-18T22:01:01.500Z,59.28
2023-04-18T22:06:04.555Z,59.72
2023-04-18T22:11:09.205Z,59.53
2023-04-18T22:16:15.309Z,59.76
2023-04-18T22:21:18.193Z,60.10
2023-04-18T22:26:21.071Z,60.41
2023-04-18T22:31:23.964Z,60.72
2023-04-18T22:36:27.789Z,60.75
2023-04-18T22:41:30.584Z,61.20
2023-04-18T22:46:33.351Z,61.49
2023-04-18T22:51:36.226Z,62.10
2023-04-18T22:56:39.310Z,62.58
2023-04-18T23:01:42.256Z,62.81
2023-04-18T23:07:16.991Z,62.84
2023-04-18T23:12:19.828Z,62.69
2023-04-18T23:17:22.690Z,62.80
2023-04-18T23:22:25.611Z,62.68
2023-04-18T23:27:29.687Z,63.37
2023-04-18T23:32:34.133Z,64.79
2023-04-18T23:37:38.122Z,66.46
2023-04-18T23:42:41.069Z,66.63
2023-04-18T23:47:43.812Z,66.35
2023-04-18T23:52:46.735Z,66.00
2023-04-18T23:57:49.546Z,66.27
